createdAt,value
2022-11-08T00:00:41.960Z,11.40
2022-11-08T00:03:10.453Z,9.53
2022-11-08T00:05:57.475Z,10.13
2022-11-08T00:08:43.303Z,10.87
2022-11-08T00:11:28.927Z,10.43
2022-11-08T00:14:00.373Z,10.57
2022-11-08T00:16:29.242Z,10.77
2022-11-08T00:18:57.911Z,11.50
2022-11-08T00:21:27.819Z,11.20
2022-11-08T00:23:56.140Z,11.30
2022-11-08T00:26:24.386Z,10.23
2022-11-08T00:28:52.762Z,10.57
2022-11-08T00:31:21.076Z,14.83
2022-11-08T00:33:49.382Z,10.47
2022-11-08T00:36:17.742Z,13.17
2022-11-08T00:38:47.457Z,9.30
2022-11-08T00:41:15.987Z,14.80
2022-11-08T00:43:44.399Z,12.07
2022-11-08T00:46:12.856Z,10.77
2022-11-08T00:48:41.100Z,11.13
2022-11-08T00:51:11.267Z,11.83
2022-11-08T00:53:40.037Z,11.27
2022-11-08T00:56:13.524Z,10.47
2022-11-08T00:58:43.893Z,12.80
2022-11-08T01:01:14.241Z,12.33
2022-11-08T01:03:44.112Z,12.03
2022-11-08T01:06:14.207Z,12.73
2022-11-08T01:08:43.656Z,12.00
2022-11-08T01:11:15.987Z,8.93
2022-11-08T01:13:44.663Z,10.43
2022-11-08T01:16:15.474Z,9.37
2022-11-08T01:18:44.552Z,9.20
2022-11-08T01:21:13.988Z,11.93
2022-11-08T01:23:43.761Z,13.93
2022-11-08T01:26:15.546Z,11.13
2022-11-08T01:28:44.123Z,12.27
2022-11-08T01:31:14.521Z,14.10
2022-11-08T01:33:58.081Z,10.13
2022-11-08T01:36:28.307Z,10.40
2022-11-08T01:38:57.018Z,6.57
2022-11-08T01:41:27.856Z,5.37
2022-11-08T01:43:58.638Z,3.33
2022-11-08T01:46:43.177Z,4.43
2022-11-08T01:49:29.911Z,2.13
2022-11-08T01:52:09.123Z,1.87
2022-11-08T01:54:44.510Z,2.03
2022-11-08T01:57:17.919Z,3.07
2022-11-08T01:59:48.543Z,2.57
2022-11-08T02:02:17.421Z,2.23
2022-11-08T02:04:45.885Z,5.67
2022-11-08T02:07:15.240Z,3.20
2022-11-08T02:09:46.799Z,2.23
2022-11-08T02:12:18.619Z,3.70
2022-11-08T02:14:46.915Z,3.27
2022-11-08T02:17:16.003Z,2.00
2022-11-08T02:19:46.694Z,3.07
2022-11-08T02:22:22.354Z,4.03
2022-11-08T02:24:54.266Z,2.90
2022-11-08T02:27:22.603Z,3.60
2022-11-08T02:29:54.651Z,3.43
2022-11-08T02:32:23.361Z,3.03
2022-11-08T02:34:55.775Z,3.43
2022-11-08T02:37:25.479Z,3.33
2022-11-08T02:39:55.075Z,5.83
2022-11-08T02:42:23.425Z,2.47
2022-11-08T02:44:51.826Z,3.63
2022-11-08T02:47:20.193Z,5.03
2022-11-08T02:49:48.460Z,4.13
2022-11-08T02:52:16.760Z,3.37
2022-11-08T02:54:45.078Z,3.77
2022-11-08T02:57:14.953Z,2.13
2022-11-08T02:59:43.412Z,4.30
2022-11-08T03:02:12.003Z,2.93
2022-11-08T03:04:40.417Z,4.17
2022-11-08T03:07:08.790Z,3.80
2022-11-08T03:09:37.145Z,3.33
2022-11-08T03:12:05.882Z,2.87
2022-11-08T03:14:35.463Z,3.20
2022-11-08T03:17:04.704Z,5.17
2022-11-08T03:19:32.922Z,2.70
2022-11-08T03:22:01.646Z,3.23
2022-11-08T03:24:29.869Z,4.27
2022-11-08T03:26:58.225Z,4.67
2022-11-08T03:29:26.869Z,4.67
2022-11-08T03:31:56.673Z,6.13
2022-11-08T03:34:25.105Z,4.20
2022-11-08T03:36:53.432Z,5.10
2022-11-08T03:39:21.975Z,4.17
2022-11-08T03:41:50.422Z,3.77
2022-11-08T03:44:18.972Z,3.07
2022-11-08T03:46:47.278Z,2.73
2022-11-08T03:49:16.938Z,6.07
2022-11-08T03:51:45.281Z,1.93
2022-11-08T03:54:13.642Z,2.57
2022-11-08T03:56:41.873Z,2.17
2022-11-08T03:59:11.849Z,3.70
2022-11-08T04:01:40.776Z,3.47
2022-11-08T04:04:09.315Z,2.47
2022-11-08T04:06:39.427Z,2.60
2022-11-08T04:09:07.691Z,2.87
2022-11-08T04:11:53.260Z,4.93
2022-11-08T04:14:38.788Z,3.47
2022-11-08T04:17:07.209Z,5.20
2022-11-08T04:19:52.705Z,5.67
2022-11-08T04:22:22.337Z,2.33
2022-11-08T04:24:50.543Z,3.43
2022-11-08T04:27:18.891Z,6.63
2022-11-08T04:29:47.188Z,8.20
2022-11-08T04:32:15.497Z,8.53
2022-11-08T04:34:43.815Z,5.20
2022-11-08T04:37:12.100Z,7.47
2022-11-08T04:39:41.896Z,6.10
2022-11-08T04:42:10.229Z,10.03
2022-11-08T04:44:38.552Z,6.77
2022-11-08T04:47:07.088Z,7.83
2022-11-08T04:49:35.559Z,10.80
2022-11-08T04:52:03.987Z,6.27
2022-11-08T04:54:32.268Z,8.03
2022-11-08T04:57:01.912Z,9.57
2022-11-08T04:59:30.216Z,8.27
2022-11-08T05:01:58.862Z,5.97
2022-11-08T05:04:27.199Z,9.67
2022-11-08T05:06:55.466Z,9.83
2022-11-08T05:09:23.892Z,8.00
2022-11-08T05:11:52.180Z,8.83
2022-11-08T05:14:21.927Z,13.27
2022-11-08T05:16:50.927Z,10.43
2022-11-08T05:19:39.245Z,8.83
2022-11-08T05:22:26.397Z,14.27
2022-11-08T05:24:54.724Z,9.67
2022-11-08T05:27:22.997Z,11.93
2022-11-08T05:29:52.645Z,12.33
2022-11-08T05:32:20.953Z,11.97
2022-11-08T05:34:49.237Z,14.77
2022-11-08T05:37:17.543Z,12.83
2022-11-08T05:39:45.981Z,16.80
2022-11-08T05:42:14.419Z,12.07
2022-11-08T05:44:42.773Z,14.27
2022-11-08T05:47:12.559Z,14.57
2022-11-08T05:49:40.915Z,17.47
2022-11-08T05:52:09.351Z,18.50
2022-11-08T05:54:38.044Z,18.27
2022-11-08T05:57:08.215Z,18.80
2022-11-08T05:59:36.898Z,17.33
2022-11-08T06:02:05.546Z,18.27
2022-11-08T06:04:35.443Z,19.30
2022-11-08T06:07:03.700Z,20.50
2022-11-08T06:09:31.987Z,17.77
2022-11-08T06:12:00.285Z,17.40
2022-11-08T06:14:28.964Z,17.33
2022-11-08T06:16:59.162Z,16.47
2022-11-08T06:19:28.220Z,17.63
2022-11-08T06:21:58.420Z,17.20
2022-11-08T06:24:27.153Z,17.80
2022-11-08T06:26:58.251Z,19.40
2022-11-08T06:29:27.579Z,14.67
2022-11-08T06:32:13.317Z,19.13
2022-11-08T06:34:42.304Z,17.43
2022-11-08T06:37:12.098Z,20.27
2022-11-08T06:39:40.612Z,18.30
2022-11-08T06:42:10.001Z,22.23
2022-11-08T06:44:38.686Z,24.60
2022-11-08T22:32:48.537Z,18.17
2022-11-08T22:35:16.931Z,16.63
2022-11-08T22:37:45.308Z,18.13
2022-11-08T22:40:14.047Z,17.43
2022-11-08T22:42:42.386Z,17.50
2022-11-08T22:45:11.764Z,15.73
2022-11-08T22:47:39.980Z,16.27
2022-11-08T22:50:10.403Z,18.27
2022-11-08T22:52:58.951Z,18.97
2022-11-08T22:55:27.424Z,17.70
2022-11-08T22:57:57.036Z,17.60
2022-11-08T23:00:25.509Z,15.63
2022-11-08T23:02:53.749Z,15.40
2022-11-08T23:05:23.564Z,18.23
2022-11-08T23:07:51.812Z,21.23
2022-11-08T23:10:20.263Z,16.50
2022-11-08T23:13:05.791Z,19.03
2022-11-08T23:15:47.976Z,15.60
2022-11-08T23:18:16.239Z,17.73
2022-11-08T23:21:03.703Z,14.10
2022-11-08T23:23:54.466Z,18.50
2022-11-08T23:26:44.823Z,15.47
2022-11-08T23:29:30.760Z,19.30
2022-11-08T23:31:59.013Z,17.43
2022-11-08T23:34:27.269Z,13.23
2022-11-08T23:36:56.947Z,14.80
2022-11-08T23:39:25.226Z,19.33
2022-11-08T23:42:10.758Z,13.37
2022-11-08T23:44:39.027Z,22.43
2022-11-08T23:47:07.318Z,13.43
2022-11-08T23:49:35.720Z,16.83
2022-11-08T23:52:05.732Z,18.87
2022-11-08T23:54:34.021Z,17.57
2022-11-08T23:57:02.287Z,18.50
2022-11-08T23:59:30.570Z,16.53
